Time,TemperatureF,DewpointF,PressureIn,WindDirection,WindDirectionDegrees,WindSpeedMPH,WindSpeedGustMPH,Humidity,HourlyPrecipIn,Conditions,Clouds,dailyrainin,SolarRadiationWatts/m^2,SoftwareType,DateUTC
2013-03-03 00:03:00,21.6,16.4,30.14,South,188,4.0,4.0,80,0.00,,SKC,0.00,0.00,VWS V14.00,2013-03-03 06:03:00,
2013-03-03 00:08:00,21.6,16.4,30.14,South,183,3.0,5.0,80,0.00,,SKC,0.00,0.00,VWS V14.00,2013-03-03 06:08:00,
2013-03-03 00:13:00,21.6,16.4,30.14,SSW,206,2.0,6.0,80,0.00,,SKC,0.00,0.00,VWS V14.00,2013-03-03 06:13:00,
2013-03-03 00:18:00,21.6,16.4,30.14,SSW,213,4.0,7.0,80,0.00,,SKC,0.00,0.00,VWS V14.00,2013-03-03 06:18:00,
2013-03-03 00:23:00,21.6,16.7,30.14,SW,216,4.0,10.0,81,0.00,,SKC,0.00,0.00,VWS V14.00,2013-03-03 06:23:00,
2013-03-03 00:28:00,21.7,16.8,30.13,SW,220,4.0,5.0,81,0.00,,SKC,0.00,0.00,VWS V14.00,2013-03-03 06:28:00,
2013-03-03 00:33:00,21.7,16.8,30.13,SSW,202,6.0,6.0,81,0.00,,SKC,0.00,0.00,VWS V14.00,2013-03-03 06:33:00,
2013-03-03 00:38:00,21.7,16.8,30.13,SSW,204,6.0,6.0,81,0.00,,SKC,0.00,0.00,VWS V14.00,2013-03-03 06:38:00,
2013-03-03 00:43:00,21.7,16.8,30.12,SSW,194,7.0,9.0,81,0.00,,SKC,0.00,0.00,VWS V14.00,2013-03-03 06:43:00,
2013-03-03 00:48:00,21.7,16.8,30.11,SSW,198,7.0,7.0,81,0.00,,SKC,0.00,0.00,VWS V14.00,2013-03-03 06:48:00,
2013-03-03 00:53:00,21.7,16.8,30.11,South,169,8.0,9.0,81,0.00,,SKC,0.00,0.00,VWS V14.00,2013-03-03 06:53:00,
2013-03-03 00:58:00,21.7,16.8,30.11,SSW,196,8.0,9.0,81,0.00,,SKC,0.00,0.00,VWS V14.00,2013-03-03 06:58:00,
2013-03-03 01:03:00,21.7,16.8,30.11,SSW,201,6.0,6.0,81,0.00,,SKC,0.00,0.00,VWS V14.00,2013-03-03 07:03:00,
2013-03-03 01:08:00,21.6,16.7,30.11,South,184,5.0,5.0,81,0.00,,SKC,0.00,0.00,VWS V14.00,2013-03-03 07:08:00,
2013-03-03 01:13:00,21.6,16.7,30.11,SSW,207,5.0,9.0,81,0.00,,SKC,0.00,0.00,VWS V14.00,2013-03-03 07:13:00,
2013-03-03 01:18:00,21.5,16.9,30.11,SSW,198,5.0,7.0,82,0.00,,SKC,0.00,0.00,VWS V14.00,2013-03-03 07:18:00,
2013-03-03 01:23:00,21.5,16.9,30.11,SSE,157,7.0,7.0,82,0.00,,SKC,0.00,0.00,VWS V14.00,2013-03-03 07:23:00,
2013-03-03 01:28:00,21.4,16.8,30.11,SSE,159,6.0,10.0,82,0.00,,SKC,0.00,0.00,VWS V14.00,2013-03-03 07:28:00,
2013-03-03 01:34:00,21.3,16.7,30.11,SSE,157,3.0,5.0,82,0.00,,SKC,0.00,0.00,VWS V14.00,2013-03-03 07:34:00,
2013-03-03 01:39:00,21.2,16.6,30.11,South,169,3.0,6.0,82,0.00,,SKC,0.00,0.00,VWS V14.00,2013-03-03 07:39:00,
2013-03-03 01:44:00,21.1,16.5,30.11,SE,144,7.0,7.0,82,0.00,,SKC,0.00,0.00,VWS V14.00,2013-03-03 07:44:00,
2013-03-03 01:49:00,21.0,16.4,30.11,SSE,164,5.0,9.0,82,0.00,,SKC,0.00,0.00,VWS V14.00,2013-03-03 07:49:00,
2013-03-03 01:54:00,21.0,16.7,30.11,South,178,4.0,7.0,83,0.00,,SKC,0.00,0.00,VWS V14.00,2013-03-03 07:54:00,
2013-03-03 01:59:00,20.9,16.6,30.11,SSE,161,8.0,8.0,83,0.00,,SKC,0.00,0.00,VWS V14.00,2013-03-03 07:59:00,
2013-03-03 02:04:00,20.9,16.6,30.11,SSE,166,6.0,7.0,83,0.00,,SKC,0.00,0.00,VWS V14.00,2013-03-03 08:04:00,
2013-03-03 02:09:00,20.9,16.6,30.10,South,170,5.0,7.0,83,0.00,,SKC,0.00,0.00,VWS V14.00,2013-03-03 08:09:00,
2013-03-03 02:14:00,20.9,16.6,30.10,South,186,3.0,6.0,83,0.00,,SKC,0.00,0.00,VWS V14.00,2013-03-03 08:14:00,
2013-03-03 02:19:00,20.9,16.6,30.10,South,179,6.0,9.0,83,0.00,,SKC,0.00,0.00,VWS V14.00,2013-03-03 08:19:00,
2013-03-03 02:24:00,20.9,16.6,30.10,South,188,6.0,9.0,83,0.00,,SKC,0.00,0.00,VWS V14.00,2013-03-03 08:24:00,
2013-03-03 02:29:00,20.9,16.6,30.10,SSW,195,6.0,6.0,83,0.00,,SKC,0.00,0.00,VWS V14.00,2013-03-03 08:29:00,
2013-03-03 02:34:00,20.9,16.6,30.10,South,171,4.0,6.0,83,0.00,,SKC,0.00,0.00,VWS V14.00,2013-03-03 08:34:00,
2013-03-03 02:39:00,20.9,16.6,30.10,South,184,5.0,6.0,83,0.00,,SKC,0.00,0.00,VWS V14.00,2013-03-03 08:39:00,
2013-03-03 02:44:00,20.9,16.6,30.09,SSW,197,5.0,8.0,83,0.00,,SKC,0.00,0.00,VWS V14.00,2013-03-03 08:44:00,
2013-03-03 02:49:00,20.9,16.6,30.09,SSW,198,5.0,7.0,83,0.00,,SKC,0.00,0.00,VWS V14.00,2013-03-03 08:49:00,
2013-03-03 02:54:00,20.9,16.6,30.09,SSE,168,5.0,8.0,83,0.00,,SKC,0.00,0.00,VWS V14.00,2013-03-03 08:54:00,
2013-03-03 02:59:00,21.0,16.7,30.08,South,171,8.0,9.0,83,0.00,,SKC,0.00,0.00,VWS V14.00,2013-03-03 08:59:00,
2013-03-03 03:04:00,21.0,16.7,30.08,South,171,5.0,6.0,83,0.00,,SKC,0.00,0.00,VWS V14.00,2013-03-03 09:04:00,
2013-03-03 03:09:00,21.0,16.7,30.08,South,182,10.0,11.0,83,0.00,,SKC,0.00,0.00,VWS V14.00,2013-03-03 09:09:00,
2013-03-03 03:14:00,21.0,16.4,30.08,South,190,7.0,9.0,82,0.00,,SKC,0.00,0.00,VWS V14.00,2013-03-03 09:14:00,
2013-03-03 03:19:00,21.1,16.5,30.07,South,187,5.0,10.0,82,0.00,,SKC,0.00,0.00,VWS V14.00,2013-03-03 09:19:00,
2013-03-03 03:24:00,21.0,16.4,30.08,SSE,167,4.0,11.0,82,0.00,,SKC,0.00,0.00,VWS V14.00,2013-03-03 09:24:00,
2013-03-03 03:29:00,21.0,16.4,30.07,SSW,197,6.0,9.0,82,0.00,,SKC,0.00,0.00,VWS V14.00,2013-03-03 09:29:00,
2013-03-03 03:34:00,21.0,16.4,30.07,SSW,192,6.0,9.0,82,0.00,,SKC,0.00,0.00,VWS V14.00,2013-03-03 09:34:00,
2013-03-03 03:39:00,20.9,16.3,30.07,South,186,3.0,5.0,82,0.00,,SKC,0.00,0.00,VWS V14.00,2013-03-03 09:39:00,
2013-03-03 03:44:00,20.9,16.3,30.07,South,182,4.0,8.0,82,0.00,,SKC,0.00,0.00,VWS V14.00,2013-03-03 09:44:00,
2013-03-03 03:49:00,20.9,16.6,30.07,South,171,3.0,7.0,83,0.00,,SKC,0.00,0.00,VWS V14.00,2013-03-03 09:49:00,
2013-03-03 03:54:00,20.9,16.6,30.07,SSE,164,3.0,7.0,83,0.00,,SKC,0.00,0.00,VWS V14.00,2013-03-03 09:54:00,
2013-03-03 03:59:00,20.9,16.6,30.07,SSW,192,6.0,10.0,83,0.00,,SKC,0.00,0.00,VWS V14.00,2013-03-03 09:59:00,
2013-03-03 04:04:00,20.9,16.6,30.06,South,177,5.0,9.0,83,0.00,,SKC,0.00,0.00,VWS V14.00,2013-03-03 10:04:00,
2013-03-03 04:09:00,20.8,16.5,30.06,SSE,167,4.0,7.0,83,0.00,,SKC,0.00,0.00,VWS V14.00,2013-03-03 10:09:00,
2013-03-03 04:14:00,20.8,16.5,30.06,SSW,196,8.0,11.0,83,0.00,,SKC,0.00,0.00,VWS V14.00,2013-03-03 10:14:00,
2013-03-03 04:20:00,20.8,16.5,30.06,South,185,5.0,10.0,83,0.00,,SKC,0.00,0.00,VWS V14.00,2013-03-03 10:20:00,
2013-03-03 04:25:00,20.8,16.5,30.06,South,180,5.0,7.0,83,0.00,,SKC,0.00,0.00,VWS V14.00,2013-03-03 10:25:00,
2013-03-03 04:30:00,20.8,16.5,30.06,SSW,195,5.0,9.0,83,0.00,,SKC,0.00,0.00,VWS V14.00,2013-03-03 10:30:00,
2013-03-03 04:35:00,20.7,16.4,30.06,SSW,193,5.0,7.0,83,0.00,,SKC,0.00,0.00,VWS V14.00,2013-03-03 10:35:00,
2013-03-03 04:40:00,20.7,16.4,30.06,South,188,6.0,10.0,83,0.00,,SKC,0.00,0.00,VWS V14.00,2013-03-03 10:40:00,
2013-03-03 04:45:00,20.6,16.3,30.06,South,182,5.0,7.0,83,0.00,,SKC,0.00,0.00,VWS V14.00,2013-03-03 10:45:00,
2013-03-03 04:50:00,20.5,16.2,30.06,South,175,5.0,10.0,83,0.00,,SKC,0.00,0.00,VWS V14.00,2013-03-03 10:50:00,
2013-03-03 04:55:00,20.4,16.1,30.06,SSE,148,7.0,8.0,83,0.00,,SKC,0.00,0.00,VWS V14.00,2013-03-03 10:55:00,
2013-03-03 05:00:00,20.3,15.7,30.06,SSE,166,4.0,9.0,82,0.00,,SKC,0.00,0.00,VWS V14.00,2013-03-03 11:00:00,
2013-03-03 05:05:00,20.2,15.9,30.05,SSE,158,2.0,6.0,83,0.00,,SKC,0.00,0.00,VWS V14.00,2013-03-03 11:05:00,
2013-03-03 05:10:00,20.0,15.4,30.05,SE,146,6.0,10.0,82,0.00,,SKC,0.00,0.00,VWS V14.00,2013-03-03 11:10:00,
2013-03-03 05:15:00,19.8,15.5,30.05,South,172,9.0,12.0,83,0.00,,SKC,0.00,0.00,VWS V14.00,2013-03-03 11:15:00,
2013-03-03 05:20:00,19.6,15.3,30.05,South,177,5.0,9.0,83,0.00,,SKC,0.00,0.00,VWS V14.00,2013-03-03 11:20:00,
2013-03-03 05:25:00,19.4,15.1,30.05,SSE,151,4.0,6.0,83,0.00,,SKC,0.00,0.00,VWS V14.00,2013-03-03 11:25:00,
2013-03-03 05:30:00,19.2,14.6,30.05,SSE,163,4.0,5.0,82,0.00,,SKC,0.00,0.00,VWS V14.00,2013-03-03 11:30:00,
2013-03-03 05:35:00,19.0,14.4,30.05,SSE,167,3.0,7.0,82,0.00,,SKC,0.00,0.00,VWS V14.00,2013-03-03 11:35:00,
2013-03-03 05:40:00,18.8,14.5,30.05,SSE,153,7.0,8.0,83,0.00,,SKC,0.00,0.00,VWS V14.00,2013-03-03 11:40:00,
2013-03-03 05:45:00,18.6,14.3,30.05,SSE,161,3.0,7.0,83,0.00,,SKC,0.00,0.00,VWS V14.00,2013-03-03 11:45:00,
2013-03-03 05:50:00,18.3,14.0,30.06,SSW,192,4.0,6.0,83,0.00,,SKC,0.00,0.00,VWS V14.00,2013-03-03 11:50:00,
2013-03-03 05:55:00,18.0,13.7,30.06,SSE,163,4.0,8.0,83,0.00,,SKC,0.00,0.00,VWS V14.00,2013-03-03 11:55:00,
2013-03-03 06:00:00,17.8,13.5,30.06,SE,144,5.0,5.0,83,0.00,,SKC,0.00,0.00,VWS V14.00,2013-03-03 12:00:00,
2013-03-03 06:05:00,17.6,13.3,30.06,SE,134,4.0,5.0,83,0.00,,SKC,0.00,0.00,VWS V14.00,2013-03-03 12:05:00,
2013-03-03 06:10:00,17.4,13.4,30.06,South,175,5.0,6.0,84,0.00,,SKC,0.00,0.00,VWS V14.00,2013-03-03 12:10:00,
2013-03-03 06:15:00,17.2,13.2,30.06,South,171,3.0,6.0,84,0.00,,SKC,0.00,0.00,VWS V14.00,2013-03-03 12:15:00,
2013-03-03 06:20:00,17.1,13.1,30.06,SSE,167,4.0,6.0,84,0.00,,SKC,0.00,0.00,VWS V14.00,2013-03-03 12:20:00,
2013-03-03 06:25:00,17.0,13.0,30.06,SE,145,5.0,5.0,84,0.00,,SKC,0.00,0.00,VWS V14.00,2013-03-03 12:25:00,
2013-03-03 06:30:00,17.0,13.0,30.06,South,178,3.0,5.0,84,0.00,,SKC,0.00,0.00,VWS V14.00,2013-03-03 12:30:00,
2013-03-03 06:53:00,16.3,12.1,30.06,SSE,167,9.0,9.0,83,0.00,,SKC,0.00,5.00,VWS V14.00,2013-03-03 12:53:00,
2013-03-03 06:58:00,16.1,11.9,30.06,SSE,160,4.0,7.0,83,0.00,,SKC,0.00,7.00,VWS V14.00,2013-03-03 12:58:00,
2013-03-03 07:03:00,15.9,11.7,30.06,SE,139,3.0,7.0,83,0.00,,SKC,0.00,11.00,VWS V14.00,2013-03-03 13:03:00,
2013-03-03 07:08:00,15.8,11.6,30.06,SSE,167,3.0,9.0,83,0.00,,SKC,0.00,12.00,VWS V14.00,2013-03-03 13:08:00,
2013-03-03 07:13:00,15.8,11.6,30.06,SE,137,3.0,7.0,83,0.00,,SKC,0.00,18.00,VWS V14.00,2013-03-03 13:13:00,
2013-03-03 07:18:00,15.8,11.6,30.06,SSE,150,3.0,7.0,83,0.00,,SKC,0.00,25.00,VWS V14.00,2013-03-03 13:18:00,
2013-03-03 07:23:00,15.8,11.6,30.05,SE,138,7.0,7.0,83,0.00,,SKC,0.00,26.00,VWS V14.00,2013-03-03 13:23:00,
2013-03-03 07:28:00,15.8,11.6,30.06,SSE,153,5.0,7.0,83,0.00,,SKC,0.00,35.00,VWS V14.00,2013-03-03 13:28:00,
2013-03-03 07:33:00,15.9,11.7,30.05,SSE,151,6.0,8.0,83,0.00,,SKC,0.00,35.00,VWS V14.00,2013-03-03 13:33:00,
2013-03-03 07:39:00,16.1,11.9,30.05,SSE,156,5.0,7.0,83,0.00,,SKC,0.00,53.00,VWS V14.00,2013-03-03 13:39:00,
2013-03-03 07:45:00,16.2,12.0,30.05,South,177,6.0,8.0,83,0.00,,SKC,0.00,65.00,VWS V14.00,2013-03-03 13:45:00,
2013-03-03 07:51:00,16.5,12.0,30.05,South,182,5.0,9.0,82,0.00,,SKC,0.00,74.00,VWS V14.00,2013-03-03 13:51:00,
2013-03-03 07:56:00,16.8,12.3,30.05,SE,140,4.0,10.0,82,0.00,,SKC,0.00,74.00,VWS V14.00,2013-03-03 13:56:00,
2013-03-03 08:01:00,17.0,12.5,30.05,SE,139,10.0,12.0,82,0.00,,SKC,0.00,83.00,VWS V14.00,2013-03-03 14:01:00,
2013-03-03 08:06:00,17.3,12.8,30.04,South,169,8.0,11.0,82,0.00,,SKC,0.00,90.00,VWS V14.00,2013-03-03 14:06:00,
2013-03-03 08:11:00,17.5,12.9,30.04,SSE,165,5.0,10.0,82,0.00,,SKC,0.00,84.00,VWS V14.00,2013-03-03 14:11:00,
2013-03-03 08:16:00,17.9,13.4,30.04,SSE,162,7.0,11.0,82,0.00,,SKC,0.00,76.00,VWS V14.00,2013-03-03 14:16:00,
2013-03-03 08:21:00,18.3,13.7,30.03,SSE,158,6.0,9.0,82,0.00,,SKC,0.00,76.00,VWS V14.00,2013-03-03 14:21:00,
2013-03-03 08:27:00,18.6,14.0,30.04,SSE,163,6.0,11.0,82,0.00,,SKC,0.00,102.00,VWS V14.00,2013-03-03 14:27:00,
2013-03-03 08:32:00,19.1,14.5,30.04,SSE,163,9.0,12.0,82,0.00,,SKC,0.00,91.00,VWS V14.00,2013-03-03 14:32:00,
2013-03-03 08:37:00,19.5,14.9,30.04,South,171,10.0,11.0,82,0.00,,SKC,0.00,83.00,VWS V14.00,2013-03-03 14:37:00,
2013-03-03 08:42:00,19.8,15.2,30.03,SSE,159,7.0,13.0,82,0.00,,SKC,0.00,83.00,VWS V14.00,2013-03-03 14:42:00,
2013-03-03 08:47:00,20.0,15.4,30.03,SE,140,8.0,12.0,82,0.00,,SKC,0.00,100.00,VWS V14.00,2013-03-03 14:47:00,
2013-03-03 08:52:00,20.4,15.5,30.03,South,174,10.0,14.0,81,0.00,,SKC,0.00,109.00,VWS V14.00,2013-03-03 14:52:00,
2013-03-03 08:57:00,20.6,15.7,30.03,South,190,7.0,14.0,81,0.00,,SKC,0.00,151.00,VWS V14.00,2013-03-03 14:57:00,
2013-03-03 09:02:00,21.1,16.2,30.03,South,188,8.0,13.0,81,0.00,,SKC,0.00,285.00,VWS V14.00,2013-03-03 15:02:00,
2013-03-03 09:07:00,21.7,16.5,30.02,South,173,12.0,13.0,80,0.00,,SKC,0.00,350.00,VWS V14.00,2013-03-03 15:07:00,
2013-03-03 09:12:00,22.2,16.7,30.03,South,176,7.0,13.0,79,0.00,,SKC,0.00,369.00,VWS V14.00,2013-03-03 15:12:00,
2013-03-03 09:17:00,22.8,17.3,30.03,SSE,159,5.0,15.0,79,0.00,,SKC,0.00,385.00,VWS V14.00,2013-03-03 15:17:00,
2013-03-03 09:22:00,23.3,17.5,30.02,SE,124,7.0,13.0,78,0.00,,SKC,0.00,125.00,VWS V14.00,2013-03-03 15:22:00,
2013-03-03 09:27:00,23.5,17.4,30.03,SSE,153,7.0,12.0,77,0.00,,SKC,0.00,410.00,VWS V14.00,2013-03-03 15:27:00,
2013-03-03 09:32:00,23.8,17.7,30.03,SSE,156,11.0,11.0,77,0.00,,SKC,0.00,424.00,VWS V14.00,2013-03-03 15:32:00,
2013-03-03 09:37:00,24.2,18.0,30.03,SSE,160,10.0,13.0,77,0.00,,SKC,0.00,434.00,VWS V14.00,2013-03-03 15:37:00,
2013-03-03 09:42:00,24.5,18.0,30.02,South,171,5.0,13.0,76,0.00,,SKC,0.00,436.00,VWS V14.00,2013-03-03 15:42:00,
2013-03-03 09:47:00,24.9,18.4,30.02,SSE,163,7.0,13.0,76,0.00,,SKC,0.00,441.00,VWS V14.00,2013-03-03 15:47:00,
2013-03-03 09:52:00,25.3,18.5,30.02,SSE,167,9.0,15.0,75,0.00,,SKC,0.00,461.00,VWS V14.00,2013-03-03 15:52:00,
2013-03-03 09:57:00,25.6,18.8,30.02,SSE,164,9.0,17.0,75,0.00,,SKC,0.00,468.00,VWS V14.00,2013-03-03 15:57:00,
2013-03-03 10:02:00,25.8,19.0,30.02,SE,126,9.0,16.0,75,0.00,,SKC,0.00,485.00,VWS V14.00,2013-03-03 16:02:00,
2013-03-03 10:07:00,26.0,19.2,30.01,South,171,7.0,12.0,75,0.00,,SKC,0.00,497.00,VWS V14.00,2013-03-03 16:07:00,
2013-03-03 10:12:00,26.1,19.0,30.01,SE,144,11.0,14.0,74,0.00,,SKC,0.00,512.00,VWS V14.00,2013-03-03 16:12:00,
2013-03-03 10:17:00,26.4,19.6,30.02,South,178,14.0,19.0,75,0.00,,SKC,0.00,520.00,VWS V14.00,2013-03-03 16:17:00,
2013-03-03 10:22:00,26.5,19.7,30.01,SSE,165,7.0,16.0,75,0.00,,SKC,0.00,533.00,VWS V14.00,2013-03-03 16:22:00,
2013-03-03 10:27:00,26.9,19.7,30.01,SSE,163,8.0,15.0,74,0.00,,SKC,0.00,541.00,VWS V14.00,2013-03-03 16:27:00,
2013-03-03 10:32:00,27.0,19.8,30.01,South,184,7.0,16.0,74,0.00,,SKC,0.00,552.00,VWS V14.00,2013-03-03 16:32:00,
2013-03-03 10:37:00,27.1,19.9,30.01,SE,138,8.0,17.0,74,0.00,,SKC,0.00,566.00,VWS V14.00,2013-03-03 16:37:00,
2013-03-03 10:42:00,27.4,20.2,30.01,SSE,157,6.0,14.0,74,0.00,,SKC,0.00,578.00,VWS V14.00,2013-03-03 16:42:00,
2013-03-03 10:47:00,27.7,20.2,30.01,South,182,8.0,18.0,73,0.00,,SKC,0.00,591.00,VWS V14.00,2013-03-03 16:47:00,
2013-03-03 10:52:00,27.8,20.6,30.01,SSE,167,4.0,19.0,74,0.00,,SKC,0.00,594.00,VWS V14.00,2013-03-03 16:52:00,
2013-03-03 10:57:00,28.0,20.5,30.01,SSE,153,11.0,16.0,73,0.00,,SKC,0.00,605.00,VWS V14.00,2013-03-03 16:57:00,
2013-03-03 11:02:00,28.1,20.9,30.01,South,169,8.0,15.0,74,0.00,,SKC,0.00,615.00,VWS V14.00,2013-03-03 17:02:00,
2013-03-03 11:08:00,28.3,20.8,30.01,SSE,157,11.0,17.0,73,0.00,,SKC,0.00,629.00,VWS V14.00,2013-03-03 17:08:00,
2013-03-03 11:13:00,28.3,20.8,30.00,SSW,192,11.0,23.0,73,0.00,,SKC,0.00,601.00,VWS V14.00,2013-03-03 17:13:00,
2013-03-03 11:18:00,28.3,20.8,30.00,SSE,163,11.0,21.0,73,0.00,,SKC,0.00,603.00,VWS V14.00,2013-03-03 17:18:00,
2013-03-03 11:23:00,28.6,21.1,30.00,SSE,161,12.0,18.0,73,0.00,,SKC,0.00,520.00,VWS V14.00,2013-03-03 17:23:00,
2013-03-03 11:28:00,28.7,21.1,30.00,South,183,12.0,21.0,73,0.00,,SKC,0.00,673.00,VWS V14.00,2013-03-03 17:28:00,
2013-03-03 11:33:00,28.7,20.8,30.00,SE,146,15.0,26.0,72,0.00,,SKC,0.00,698.00,VWS V14.00,2013-03-03 17:33:00,
2013-03-03 11:38:00,28.6,20.7,30.00,SSE,148,10.0,18.0,72,0.00,,SKC,0.00,529.00,VWS V14.00,2013-03-03 17:38:00,
2013-03-03 11:43:00,28.7,21.1,30.00,South,175,12.0,19.0,73,0.00,,SKC,0.00,689.00,VWS V14.00,2013-03-03 17:43:00,
2013-03-03 11:48:00,29.2,21.3,30.00,South,177,17.0,20.0,72,0.00,,SKC,0.00,682.00,VWS V14.00,2013-03-03 17:48:00,
2013-03-03 11:53:00,29.3,21.1,30.00,South,184,6.0,19.0,71,0.00,,SKC,0.00,682.00,VWS V14.00,2013-03-03 17:53:00,
2013-03-03 11:58:00,29.4,21.5,29.99,SE,143,11.0,20.0,72,0.00,,SKC,0.00,684.00,VWS V14.00,2013-03-03 17:58:00,
2013-03-03 12:03:00,29.2,21.0,29.99,South,183,13.0,23.0,71,0.00,,SKC,0.00,619.00,VWS V14.00,2013-03-03 18:03:00,
2013-03-03 12:08:00,29.3,21.4,29.99,SSE,160,10.0,15.0,72,0.00,,SKC,0.00,686.00,VWS V14.00,2013-03-03 18:08:00,
2013-03-03 12:13:00,29.6,21.7,29.99,SE,144,13.0,18.0,72,0.00,,SKC,0.00,687.00,VWS V14.00,2013-03-03 18:13:00,
2013-03-03 12:18:00,29.6,21.4,29.99,South,173,11.0,22.0,71,0.00,,SKC,0.00,687.00,VWS V14.00,2013-03-03 18:18:00,
2013-03-03 12:23:00,29.7,21.5,29.99,SE,129,11.0,20.0,71,0.00,,SKC,0.00,715.00,VWS V14.00,2013-03-03 18:23:00,
2013-03-03 12:28:00,30.1,21.9,29.99,South,178,13.0,19.0,71,0.00,,SKC,0.00,687.00,VWS V14.00,2013-03-03 18:28:00,
2013-03-03 12:33:00,30.6,22.0,29.99,SE,139,9.0,15.0,70,0.00,,SKC,0.00,698.00,VWS V14.00,2013-03-03 18:33:00,
2013-03-03 12:38:00,30.6,21.6,29.98,SSE,163,10.0,21.0,69,0.00,,SKC,0.00,677.00,VWS V14.00,2013-03-03 18:38:00,
2013-03-03 12:43:00,30.6,21.6,29.98,SSE,166,14.0,18.0,69,0.00,,SKC,0.00,689.00,VWS V14.00,2013-03-03 18:43:00,
2013-03-03 12:48:00,30.8,21.5,29.98,South,177,12.0,20.0,68,0.00,,SKC,0.00,701.00,VWS V14.00,2013-03-03 18:48:00,
2013-03-03 12:53:00,30.8,21.5,29.98,SSE,168,12.0,14.0,68,0.00,,SKC,0.00,675.00,VWS V14.00,2013-03-03 18:53:00,
2013-03-03 12:58:00,30.7,21.4,29.97,South,171,14.0,15.0,68,0.00,,SKC,0.00,670.00,VWS V14.00,2013-03-03 18:58:00,
2013-03-03 13:03:00,30.8,21.5,29.97,South,171,13.0,15.0,68,0.00,,SKC,0.00,640.00,VWS V14.00,2013-03-03 19:03:00,
2013-03-03 13:08:00,30.7,21.1,29.97,SSW,213,7.0,8.0,67,0.00,,SKC,0.00,621.00,VWS V14.00,2013-03-03 19:08:00,
2013-03-03 13:13:00,30.9,21.2,29.97,SSE,161,13.0,16.0,67,0.00,,SKC,0.00,608.00,VWS V14.00,2013-03-03 19:13:00,
2013-03-03 13:18:00,30.5,20.5,29.96,SSE,166,17.0,20.0,66,0.00,,SKC,0.00,598.00,VWS V14.00,2013-03-03 19:18:00,
2013-03-03 13:23:00,30.2,20.2,29.96,SE,142,20.0,21.0,66,0.00,,SKC,0.00,596.00,VWS V14.00,2013-03-03 19:23:00,
2013-03-03 13:28:00,30.1,20.5,29.96,SSE,167,12.0,13.0,67,0.00,,SKC,0.00,587.00,VWS V14.00,2013-03-03 19:28:00,
2013-03-03 13:33:00,30.1,20.1,29.96,South,172,11.0,18.0,66,0.00,,SKC,0.00,594.00,VWS V14.00,2013-03-03 19:33:00,
2013-03-03 13:39:00,30.1,20.1,29.95,SSE,153,18.0,18.0,66,0.00,,SKC,0.00,629.00,VWS V14.00,2013-03-03 19:39:00,
2013-03-03 13:44:00,30.3,20.3,29.95,SSW,194,24.0,24.0,66,0.00,,SKC,0.00,594.00,VWS V14.00,2013-03-03 19:44:00,
2013-03-03 13:49:00,30.7,20.3,29.95,SSE,159,10.0,11.0,65,0.00,,SKC,0.00,596.00,VWS V14.00,2013-03-03 19:49:00,
2013-03-03 13:54:00,30.6,19.9,29.95,SSE,168,10.0,14.0,64,0.00,,SKC,0.00,608.00,VWS V14.00,2013-03-03 19:54:00,
2013-03-03 13:59:00,30.5,19.8,29.94,SSW,192,11.0,16.0,64,0.00,,SKC,0.00,610.00,VWS V14.00,2013-03-03 19:59:00,
2013-03-03 14:04:00,30.4,19.3,29.94,SSE,150,11.0,17.0,63,0.00,,SKC,0.00,613.00,VWS V14.00,2013-03-03 20:04:00,
2013-03-03 14:09:00,30.2,19.5,29.94,SSE,166,16.0,16.0,64,0.00,,SKC,0.00,555.00,VWS V14.00,2013-03-03 20:09:00,
2013-03-03 14:14:00,30.4,19.7,29.94,SE,145,10.0,10.0,64,0.00,,SKC,0.00,534.00,VWS V14.00,2013-03-03 20:14:00,
2013-03-03 14:19:00,30.5,19.4,29.94,South,180,18.0,20.0,63,0.00,,SKC,0.00,526.00,VWS V14.00,2013-03-03 20:19:00,
2013-03-03 14:24:00,30.5,19.4,29.94,South,171,6.0,17.0,63,0.00,,SKC,0.00,482.00,VWS V14.00,2013-03-03 20:24:00,
2013-03-03 14:29:00,30.1,18.7,29.94,SSE,156,12.0,15.0,62,0.00,,SKC,0.00,462.00,VWS V14.00,2013-03-03 20:29:00,
2013-03-03 14:34:00,29.9,18.5,29.94,SSE,150,12.0,16.0,62,0.00,,SKC,0.00,434.00,VWS V14.00,2013-03-03 20:34:00,
2013-03-03 14:39:00,30.1,18.7,29.94,SE,137,6.0,13.0,62,0.00,,SKC,0.00,378.00,VWS V14.00,2013-03-03 20:39:00,
2013-03-03 14:44:00,30.1,18.3,29.94,SSE,168,8.0,16.0,61,0.00,,SKC,0.00,352.00,VWS V14.00,2013-03-03 20:44:00,
2013-03-03 14:49:00,29.9,17.7,29.94,SE,142,16.0,17.0,60,0.00,,SKC,0.00,352.00,VWS V14.00,2013-03-03 20:49:00,
2013-03-03 14:54:00,29.7,17.5,29.94,South,180,11.0,16.0,60,0.00,,SKC,0.00,366.00,VWS V14.00,2013-03-03 20:54:00,
2013-03-03 14:59:00,29.7,17.1,29.94,SE,129,12.0,13.0,59,0.00,,SKC,0.00,374.00,VWS V14.00,2013-03-03 20:59:00,
2013-03-03 15:04:00,29.6,17.4,29.93,SSE,154,9.0,13.0,60,0.00,,SKC,0.00,350.00,VWS V14.00,2013-03-03 21:04:00,
2013-03-03 15:09:00,29.7,17.1,29.93,SSE,165,10.0,14.0,59,0.00,,SKC,0.00,373.00,VWS V14.00,2013-03-03 21:09:00,
2013-03-03 15:14:00,29.7,17.1,29.93,SSE,161,12.0,15.0,59,0.00,,SKC,0.00,392.00,VWS V14.00,2013-03-03 21:14:00,
2013-03-03 15:19:00,29.7,16.8,29.93,SSE,154,17.0,17.0,58,0.00,,SKC,0.00,376.00,VWS V14.00,2013-03-03 21:19:00,
2013-03-03 15:24:00,29.6,16.6,29.93,South,171,9.0,18.0,58,0.00,,SKC,0.00,392.00,VWS V14.00,2013-03-03 21:24:00,
2013-03-03 15:29:00,29.7,16.8,29.93,SSE,164,14.0,18.0,58,0.00,,SKC,0.00,401.00,VWS V14.00,2013-03-03 21:29:00,
2013-03-03 15:34:00,29.8,16.8,29.93,SE,134,13.0,19.0,58,0.00,,SKC,0.00,348.00,VWS V14.00,2013-03-03 21:34:00,
2013-03-03 15:39:00,29.8,16.4,29.93,South,174,12.0,17.0,57,0.00,,SKC,0.00,352.00,VWS V14.00,2013-03-03 21:39:00,
2013-03-03 15:44:00,29.8,16.8,29.93,South,178,11.0,14.0,58,0.00,,SKC,0.00,323.00,VWS V14.00,2013-03-03 21:44:00,
2013-03-03 15:49:00,29.8,17.2,29.93,SE,144,9.0,12.0,59,0.00,,SKC,0.00,288.00,VWS V14.00,2013-03-03 21:49:00,
2013-03-03 15:54:00,29.7,17.1,29.93,South,174,9.0,14.0,59,0.00,,SKC,0.00,276.00,VWS V14.00,2013-03-03 21:54:00,
2013-03-03 15:59:00,29.7,17.1,29.93,SE,136,13.0,13.0,59,0.00,,SKC,0.00,250.00,VWS V14.00,2013-03-03 21:59:00,
2013-03-03 16:05:00,29.5,17.0,29.93,SSE,164,7.0,16.0,59,0.00,,SKC,0.00,239.00,VWS V14.00,2013-03-03 22:05:00,
2013-03-03 16:10:00,29.2,17.1,29.93,South,181,8.0,15.0,60,0.00,,SKC,0.00,220.00,VWS V14.00,2013-03-03 22:10:00,
2013-03-03 16:15:00,29.0,17.2,29.93,SSE,167,10.0,14.0,61,0.00,,SKC,0.00,214.00,VWS V14.00,2013-03-03 22:15:00,
2013-03-03 16:20:00,28.9,17.5,29.92,South,178,11.0,12.0,62,0.00,,SKC,0.00,199.00,VWS V14.00,2013-03-03 22:20:00,
2013-03-03 16:25:00,28.9,17.5,29.93,SSE,159,16.0,16.0,62,0.00,,SKC,0.00,178.00,VWS V14.00,2013-03-03 22:25:00,
2013-03-03 16:30:00,28.8,17.1,29.93,SSE,152,14.0,19.0,61,0.00,,SKC,0.00,174.00,VWS V14.00,2013-03-03 22:30:00,
2013-03-03 16:35:00,28.7,17.3,29.93,SSE,163,11.0,13.0,62,0.00,,SKC,0.00,148.00,VWS V14.00,2013-03-03 22:35:00,
2013-03-03 16:40:00,28.6,17.2,29.93,South,171,10.0,13.0,62,0.00,,SKC,0.00,135.00,VWS V14.00,2013-03-03 22:40:00,
2013-03-03 16:45:00,28.5,17.1,29.92,SSE,168,11.0,18.0,62,0.00,,SKC,0.00,118.00,VWS V14.00,2013-03-03 22:45:00,
2013-03-03 16:50:00,28.5,17.5,29.92,SE,134,12.0,15.0,63,0.00,,SKC,0.00,109.00,VWS V14.00,2013-03-03 22:50:00,
2013-03-03 16:55:00,28.4,17.1,29.93,SSE,159,18.0,18.0,62,0.00,,SKC,0.00,98.00,VWS V14.00,2013-03-03 22:55:00,
2013-03-03 17:00:00,28.3,17.0,29.93,SSE,155,10.0,15.0,62,0.00,,SKC,0.00,88.00,VWS V14.00,2013-03-03 23:00:00,
2013-03-03 17:05:00,28.3,17.0,29.93,SSE,165,11.0,17.0,62,0.00,,SKC,0.00,81.00,VWS V14.00,2013-03-03 23:05:00,
2013-03-03 17:10:00,28.2,17.2,29.92,SE,146,11.0,13.0,63,0.00,,SKC,0.00,76.00,VWS V14.00,2013-03-03 23:10:00,
2013-03-03 17:15:00,28.2,17.2,29.92,SSE,158,11.0,19.0,63,0.00,,SKC,0.00,63.00,VWS V14.00,2013-03-03 23:15:00,
2013-03-03 17:20:00,28.1,17.5,29.92,SSE,163,6.0,17.0,64,0.00,,SKC,0.00,51.00,VWS V14.00,2013-03-03 23:20:00,
2013-03-03 17:25:00,28.0,17.8,29.92,SSE,155,10.0,13.0,65,0.00,,SKC,0.00,47.00,VWS V14.00,2013-03-03 23:25:00,
2013-03-03 17:30:00,28.0,17.4,29.92,South,173,11.0,14.0,64,0.00,,SKC,0.00,40.00,VWS V14.00,2013-03-03 23:30:00,
2013-03-03 17:35:00,27.9,17.3,29.92,South,176,13.0,14.0,64,0.00,,SKC,0.00,30.00,VWS V14.00,2013-03-03 23:35:00,
2013-03-03 17:40:00,27.8,17.6,29.92,SSE,153,11.0,16.0,65,0.00,,SKC,0.00,23.00,VWS V14.00,2013-03-03 23:40:00,
2013-03-03 17:45:00,27.7,17.5,29.92,SSE,148,7.0,14.0,65,0.00,,SKC,0.00,16.00,VWS V14.00,2013-03-03 23:45:00,
2013-03-03 17:50:00,27.6,17.4,29.92,SSE,153,10.0,15.0,65,0.00,,SKC,0.00,12.00,VWS V14.00,2013-03-03 23:50:00,
2013-03-03 17:55:00,27.6,17.4,29.92,SE,146,11.0,18.0,65,0.00,,SKC,0.00,9.00,VWS V14.00,2013-03-03 23:55:00,
2013-03-03 18:00:00,27.6,17.4,29.92,SSW,193,7.0,16.0,65,0.00,,SKC,0.00,5.00,VWS V14.00,2013-03-04 00:00:00,
2013-03-03 18:05:00,27.6,17.4,29.92,SSE,148,11.0,15.0,65,0.00,,SKC,0.00,0.00,VWS V14.00,2013-03-04 00:05:00,
2013-03-03 18:10:00,27.6,17.0,29.92,SE,128,8.0,15.0,64,0.00,,SKC,0.00,0.00,VWS V14.00,2013-03-04 00:10:00,
2013-03-03 18:15:00,27.6,17.4,29.92,SE,141,9.0,13.0,65,0.00,,SKC,0.00,0.00,VWS V14.00,2013-03-04 00:15:00,
2013-03-03 18:20:00,27.6,17.0,29.92,SE,146,11.0,16.0,64,0.00,,SKC,0.00,0.00,VWS V14.00,2013-03-04 00:20:00,
2013-03-03 18:25:00,27.5,16.9,29.92,SSE,160,8.0,14.0,64,0.00,,SKC,0.00,0.00,VWS V14.00,2013-03-04 00:25:00,
2013-03-03 18:30:00,27.5,17.3,29.92,SSE,153,6.0,16.0,65,0.00,,SKC,0.00,0.00,VWS V14.00,2013-03-04 00:30:00,
2013-03-03 18:35:00,27.5,17.3,29.92,South,178,11.0,16.0,65,0.00,,SKC,0.00,0.00,VWS V14.00,2013-03-04 00:35:00,
2013-03-03 18:41:00,27.4,17.5,29.92,SSW,196,14.0,17.0,66,0.00,,SKC,0.00,0.00,VWS V14.00,2013-03-04 00:41:00,
2013-03-03 18:46:00,27.5,17.6,29.91,SSE,157,10.0,19.0,66,0.00,,SKC,0.00,0.00,VWS V14.00,2013-03-04 00:46:00,
2013-03-03 18:51:00,27.4,17.9,29.91,SSE,150,11.0,15.0,67,0.00,,SKC,0.00,0.00,VWS V14.00,2013-03-04 00:51:00,
2013-03-03 18:56:00,27.4,17.5,29.92,SSE,152,12.0,17.0,66,0.00,,SKC,0.00,0.00,VWS V14.00,2013-03-04 00:56:00,
2013-03-03 19:01:00,27.4,17.5,29.92,SE,146,10.0,16.0,66,0.00,,SKC,0.00,0.00,VWS V14.00,2013-03-04 01:01:00,
2013-03-03 19:06:00,27.4,17.5,29.92,SSE,160,6.0,13.0,66,0.00,,SKC,0.00,0.00,VWS V14.00,2013-03-04 01:06:00,
2013-03-03 19:11:00,27.4,17.5,29.92,SSE,159,10.0,15.0,66,0.00,,SKC,0.00,0.00,VWS V14.00,2013-03-04 01:11:00,
2013-03-03 19:16:00,27.3,17.1,29.92,SSE,153,13.0,20.0,65,0.00,,SKC,0.00,0.00,VWS V14.00,2013-03-04 01:16:00,
2013-03-03 19:21:00,27.4,16.8,29.92,South,172,12.0,20.0,64,0.00,,SKC,0.00,0.00,VWS V14.00,2013-03-04 01:21:00,
2013-03-03 19:26:00,27.3,16.8,29.92,South,180,14.0,21.0,64,0.00,,SKC,0.00,0.00,VWS V14.00,2013-03-04 01:26:00,
2013-03-03 19:31:00,27.3,16.4,29.92,South,180,14.0,16.0,63,0.00,,SKC,0.00,0.00,VWS V14.00,2013-03-04 01:31:00,
2013-03-03 19:36:00,27.3,16.4,29.92,South,169,11.0,18.0,63,0.00,,SKC,0.00,0.00,VWS V14.00,2013-03-04 01:36:00,
2013-03-03 19:41:00,27.2,15.9,29.92,SSE,150,13.0,19.0,62,0.00,,SKC,0.00,0.00,VWS V14.00,2013-03-04 01:41:00,
2013-03-03 19:46:00,27.2,16.3,29.92,South,184,10.0,15.0,63,0.00,,SKC,0.00,0.00,VWS V14.00,2013-03-04 01:46:00,
2013-03-03 19:51:00,27.1,16.2,29.92,SSE,153,15.0,19.0,63,0.00,,SKC,0.00,0.00,VWS V14.00,2013-03-04 01:51:00,
2013-03-03 19:56:00,27.1,16.2,29.92,SE,144,13.0,16.0,63,0.00,,SKC,0.00,0.00,VWS V14.00,2013-03-04 01:56:00,
2013-03-03 20:01:00,27.0,15.7,29.92,South,180,14.0,17.0,62,0.00,,SKC,0.00,0.00,VWS V14.00,2013-03-04 02:01:00,
2013-03-03 20:06:00,27.0,16.1,29.92,SSE,151,9.0,18.0,63,0.00,,SKC,0.00,0.00,VWS V14.00,2013-03-04 02:06:00,
2013-03-03 20:11:00,27.0,16.1,29.92,SSE,149,13.0,15.0,63,0.00,,SKC,0.00,0.00,VWS V14.00,2013-03-04 02:11:00,
2013-03-03 20:16:00,26.9,16.4,29.92,South,170,13.0,17.0,64,0.00,,SKC,0.00,0.00,VWS V14.00,2013-03-04 02:16:00,
2013-03-03 20:21:00,26.9,16.4,29.92,SSE,167,4.0,16.0,64,0.00,,SKC,0.00,0.00,VWS V14.00,2013-03-04 02:21:00,
2013-03-03 20:26:00,26.9,16.4,29.92,SE,142,12.0,18.0,64,0.00,,SKC,0.00,0.00,VWS V14.00,2013-03-04 02:26:00,
2013-03-03 20:31:00,26.9,16.4,29.92,SSE,157,15.0,20.0,64,0.00,,SKC,0.00,0.00,VWS V14.00,2013-03-04 02:31:00,
2013-03-03 20:36:00,26.9,16.0,29.92,South,175,14.0,21.0,63,0.00,,SKC,0.00,0.00,VWS V14.00,2013-03-04 02:36:00,
2013-03-03 20:41:00,26.8,16.3,29.92,SE,144,9.0,18.0,64,0.00,,SKC,0.00,0.00,VWS V14.00,2013-03-04 02:41:00,
2013-03-03 20:46:00,26.8,15.9,29.92,South,184,19.0,23.0,63,0.00,,SKC,0.00,0.00,VWS V14.00,2013-03-04 02:46:00,
2013-03-03 20:51:00,26.8,15.9,29.91,SSE,150,12.0,22.0,63,0.00,,SKC,0.00,0.00,VWS V14.00,2013-03-04 02:51:00,
2013-03-03 20:56:00,26.8,15.9,29.92,SE,138,15.0,20.0,63,0.00,,SKC,0.00,0.00,VWS V14.00,2013-03-04 02:56:00,
2013-03-03 21:01:00,26.8,15.9,29.91,SSE,155,13.0,13.0,63,0.00,,SKC,0.00,0.00,VWS V14.00,2013-03-04 03:01:00,
2013-03-03 21:06:00,26.8,16.3,29.91,SSE,152,16.0,19.0,64,0.00,,SKC,0.00,0.00,VWS V14.00,2013-03-04 03:06:00,
2013-03-03 21:12:00,26.7,16.5,29.91,SSE,160,13.0,17.0,65,0.00,,SKC,0.00,0.00,VWS V14.00,2013-03-04 03:12:00,
2013-03-03 21:17:00,26.7,16.9,29.91,South,170,15.0,16.0,66,0.00,,SKC,0.00,0.00,VWS V14.00,2013-03-04 03:17:00,
2013-03-03 21:22:00,26.6,16.8,29.91,SSE,163,12.0,18.0,66,0.00,,SKC,0.00,0.00,VWS V14.00,2013-03-04 03:22:00,
2013-03-03 21:27:00,26.6,16.8,29.91,SSE,155,14.0,16.0,66,0.00,,SKC,0.00,0.00,VWS V14.00,2013-03-04 03:27:00,
2013-03-03 21:32:00,26.6,16.8,29.91,South,177,9.0,18.0,66,0.00,,SKC,0.00,0.00,VWS V14.00,2013-03-04 03:32:00,
2013-03-03 21:37:00,26.5,16.7,29.91,SSE,149,12.0,17.0,66,0.00,,SKC,0.00,0.00,VWS V14.00,2013-03-04 03:37:00,
2013-03-03 21:42:00,26.5,17.0,29.91,SSE,150,10.0,16.0,67,0.00,,SKC,0.00,0.00,VWS V14.00,2013-03-04 03:42:00,
2013-03-03 21:47:00,26.5,16.7,29.91,South,177,5.0,18.0,66,0.00,,SKC,0.00,0.00,VWS V14.00,2013-03-04 03:47:00,
2013-03-03 21:52:00,26.5,17.0,29.91,SSE,155,10.0,16.0,67,0.00,,SKC,0.00,0.00,VWS V14.00,2013-03-04 03:52:00,
2013-03-03 21:57:00,26.4,16.6,29.91,SSE,162,11.0,21.0,66,0.00,,SKC,0.00,0.00,VWS V14.00,2013-03-04 03:57:00,
2013-03-03 22:02:00,26.5,16.7,29.91,SSE,155,15.0,18.0,66,0.00,,SKC,0.00,0.00,VWS V14.00,2013-03-04 04:02:00,
2013-03-03 22:07:00,26.4,16.6,29.91,South,186,13.0,15.0,66,0.00,,SKC,0.00,0.00,VWS V14.00,2013-03-04 04:07:00,
2013-03-03 22:12:00,26.5,16.7,29.91,South,175,10.0,14.0,66,0.00,,SKC,0.00,0.00,VWS V14.00,2013-03-04 04:12:00,
2013-03-03 22:17:00,26.5,16.3,29.91,SSE,156,13.0,17.0,65,0.00,,SKC,0.00,0.00,VWS V14.00,2013-03-04 04:17:00,
2013-03-03 22:22:00,26.5,16.3,29.91,SSE,166,10.0,17.0,65,0.00,,SKC,0.00,0.00,VWS V14.00,2013-03-04 04:22:00,
2013-03-03 22:27:00,26.5,16.7,29.91,SSW,198,8.0,17.0,66,0.00,,SKC,0.00,0.00,VWS V14.00,2013-03-04 04:27:00,
2013-03-03 22:32:00,26.5,16.7,29.91,SE,136,15.0,21.0,66,0.00,,SKC,0.00,0.00,VWS V14.00,2013-03-04 04:32:00,
2013-03-03 22:37:00,26.4,16.6,29.91,South,172,10.0,20.0,66,0.00,,SKC,0.00,0.00,VWS V14.00,2013-03-04 04:37:00,
2013-03-03 22:42:00,26.4,16.9,29.91,South,169,17.0,17.0,67,0.00,,SKC,0.00,0.00,VWS V14.00,2013-03-04 04:42:00,
2013-03-03 22:47:00,26.3,16.5,29.92,SSE,156,13.0,17.0,66,0.00,,SKC,0.00,0.00,VWS V14.00,2013-03-04 04:47:00,
2013-03-03 22:52:00,26.2,16.4,29.92,SW,223,14.0,28.0,66,0.00,,SKC,0.00,0.00,VWS V14.00,2013-03-04 04:52:00,
2013-03-03 22:57:00,26.0,16.6,29.92,SSW,207,14.0,21.0,67,0.00,,SKC,0.00,0.00,VWS V14.00,2013-03-04 04:57:00,
2013-03-03 23:01:00,25.9,16.8,29.92,SSW,194,11.0,20.0,68,0.00,,SKC,0.00,0.00,VWS V14.00,2013-03-04 05:01:00,
2013-03-03 23:02:00,25.8,16.7,29.92,South,175,7.0,20.0,68,0.00,,SKC,0.00,0.00,VWS V14.00,2013-03-04 05:02:00,
2013-03-03 23:07:00,25.5,17.8,29.92,South,190,17.0,21.0,72,0.00,,SKC,0.00,0.00,VWS V14.00,2013-03-04 05:07:00,
2013-03-03 23:09:00,25.4,18.0,29.92,SSW,205,12.0,23.0,73,0.00,,SKC,0.00,0.00,VWS V14.00,2013-03-04 05:09:00,
2013-03-03 23:14:00,24.8,18.6,29.92,South,173,18.0,24.0,77,0.00,,SKC,0.00,0.00,VWS V14.00,2013-03-04 05:14:00,
2013-03-03 23:18:00,24.4,19.1,29.92,SSE,159,13.0,24.0,80,0.00,,SKC,0.00,0.00,VWS V14.00,2013-03-04 05:18:00,
2013-03-03 23:23:00,23.9,19.5,29.92,South,178,10.0,18.0,83,0.00,,SKC,0.00,0.00,VWS V14.00,2013-03-04 05:23:00,
2013-03-03 23:28:00,23.5,19.7,29.92,SSE,147,12.0,20.0,85,0.00,,SKC,0.00,0.00,VWS V14.00,2013-03-04 05:28:00,
2013-03-03 23:33:00,23.3,19.7,29.92,South,178,7.0,19.0,86,0.00,,SKC,0.00,0.00,VWS V14.00,2013-03-04 05:33:00,
2013-03-03 23:38:00,23.0,19.7,29.92,SSE,163,10.0,19.0,87,0.00,,SKC,0.00,0.00,VWS V14.00,2013-03-04 05:38:00,
2013-03-03 23:43:00,22.9,19.9,29.92,South,180,11.0,18.0,88,0.00,,SKC,0.00,0.00,VWS V14.00,2013-03-04 05:43:00,
2013-03-03 23:48:00,22.8,20.0,29.92,South,188,9.0,16.0,89,0.00,,SKC,0.00,0.00,VWS V14.00,2013-03-04 05:48:00,
2013-03-03 23:53:00,22.7,20.0,29.92,South,171,12.0,18.0,89,0.00,,SKC,0.00,0.00,VWS V14.00,2013-03-04 05:53:00,
2013-03-03 23:58:00,22.6,20.1,29.91,SSW,211,10.0,20.0,90,0.00,,SKC,0.00,0.00,VWS V14.00,2013-03-04 05:58:00,